createdAt,value
2022-09-28T00:01:53.858Z,82.90
2022-09-28T00:04:57.534Z,82.90
2022-09-28T00:08:01.183Z,82.80
2022-09-28T00:11:06.219Z,82.90
2022-09-28T00:14:10.675Z,82.90
2022-09-28T00:17:16.510Z,82.90
2022-09-28T00:20:21.623Z,82.90
2022-09-28T00:23:25.250Z,82.90
2022-09-28T00:26:29.547Z,83.00
2022-09-28T00:29:35.669Z,83.00
2022-09-28T00:32:41.190Z,83.00
2022-09-28T00:35:46.439Z,83.00
2022-09-28T00:38:51.081Z,83.00
2022-09-28T00:41:55.589Z,83.00
2022-09-28T00:45:00.204Z,83.00
2022-09-28T00:48:06.024Z,83.00
2022-09-28T00:51:12.615Z,83.10
2022-09-28T00:54:17.634Z,83.10
2022-09-28T00:57:23.151Z,83.10
2022-09-28T01:00:27.143Z,83.10
2022-09-28T01:03:33.981Z,83.10
2022-09-28T01:06:40.322Z,83.20
2022-09-28T01:09:45.241Z,83.00
2022-09-28T01:12:48.874Z,83.00
2022-09-28T01:16:01.654Z,83.10
2022-09-28T01:19:23.882Z,83.20
2022-09-28T01:22:46.675Z,83.20
2022-09-28T01:25:56.682Z,83.20
2022-09-28T01:29:07.436Z,83.10
2022-09-28T01:32:18.287Z,83.20
2022-09-28T01:35:26.646Z,83.20
2022-09-28T01:38:33.076Z,83.20
2022-09-28T01:41:39.706Z,83.20
2022-09-28T01:44:48.902Z,83.30
2022-09-28T01:47:55.662Z,83.20
2022-09-28T01:51:02.070Z,83.20
2022-09-28T01:54:12.115Z,83.20
2022-09-28T01:57:23.466Z,83.30
2022-09-28T02:00:29.883Z,83.20
2022-09-28T02:03:40.297Z,83.20
2022-09-28T02:06:49.362Z,83.20
2022-09-28T02:09:57.250Z,83.30
2022-09-28T02:13:05.798Z,83.20
2022-09-28T02:16:18.611Z,83.20
2022-09-28T02:19:25.678Z,83.20
2022-09-28T02:22:35.136Z,83.20
2022-09-28T02:25:42.258Z,83.20
2022-09-28T02:28:46.800Z,83.20
2022-09-28T02:31:53.195Z,83.30
2022-09-28T02:34:57.237Z,83.30
2022-09-28T02:38:00.888Z,83.30
2022-09-28T02:41:08.282Z,83.30
2022-09-28T02:44:24.807Z,83.30
2022-09-28T02:47:57.865Z,83.30
2022-09-28T02:51:10.665Z,83.40
2022-09-28T02:54:47.965Z,83.30
2022-09-28T02:58:07.192Z,83.30
2022-09-28T03:01:21.027Z,83.30
2022-09-28T03:04:33.936Z,83.30
2022-09-28T03:07:41.255Z,83.40
2022-09-28T03:10:48.715Z,83.90
2022-09-28T03:13:53.418Z,83.30
2022-09-28T03:17:01.066Z,83.40
2022-09-28T03:20:08.062Z,83.40
2022-09-28T03:23:24.227Z,83.30
2022-09-28T03:26:28.351Z,83.30
2022-09-28T03:29:32.500Z,83.30
2022-09-28T03:32:40.693Z,83.30
2022-09-28T03:35:48.186Z,83.30
2022-09-28T03:38:54.491Z,83.30
2022-09-28T03:41:58.132Z,83.30
2022-09-28T03:45:01.934Z,83.30
2022-09-28T03:48:05.822Z,83.40
2022-09-28T03:51:13.943Z,83.40
2022-09-28T03:54:18.318Z,83.40
2022-09-28T03:57:22.011Z,83.40
2022-09-28T04:00:25.698Z,83.40
2022-09-28T04:03:29.406Z,83.30
2022-09-28T04:06:34.995Z,83.30
2022-09-28T04:09:38.763Z,83.40
2022-09-28T04:12:42.398Z,83.40
2022-09-28T04:15:53.909Z,83.40
2022-09-28T04:18:59.120Z,83.50
2022-09-28T04:22:23.680Z,83.50
2022-09-28T04:25:27.390Z,83.50
2022-09-28T04:28:44.236Z,83.50
2022-09-28T04:31:49.917Z,83.50
2022-09-28T04:34:54.244Z,83.60
2022-09-28T04:38:00.243Z,83.50
2022-09-28T04:41:04.240Z,83.60
2022-09-28T04:44:08.522Z,83.60
2022-09-28T04:47:12.212Z,83.60
2022-09-28T04:50:35.620Z,83.60
2022-09-28T04:54:00.627Z,83.60
2022-09-28T04:57:05.463Z,83.70
2022-09-28T05:00:10.928Z,83.70
2022-09-28T05:03:15.903Z,83.70
2022-09-28T05:06:47.587Z,83.70
2022-09-28T05:09:54.525Z,83.60
2022-09-28T05:12:58.129Z,83.70
2022-09-28T05:16:05.470Z,83.60
2022-09-28T05:19:14.102Z,83.70
2022-09-28T05:22:18.646Z,83.70
2022-09-28T05:25:25.469Z,83.80
2022-09-28T05:28:41.647Z,83.80
2022-09-28T05:32:05.333Z,83.80
2022-09-28T05:35:20.927Z,83.70
2022-09-28T05:38:25.879Z,83.80
2022-09-28T05:41:31.494Z,83.80
2022-09-28T05:44:37.876Z,83.80
2022-09-28T05:47:43.232Z,83.80
2022-09-28T05:50:51.902Z,83.90
2022-09-28T05:53:56.222Z,83.90
2022-09-28T05:57:06.201Z,83.90
2022-09-28T06:00:11.302Z,83.90
2022-09-28T06:03:21.823Z,83.90
2022-09-28T06:06:25.553Z,83.90
2022-09-28T06:09:29.438Z,83.90
2022-09-28T06:12:40.699Z,83.90
2022-09-28T06:15:49.373Z,83.90
2022-09-28T06:18:53.278Z,83.90
2022-09-28T06:22:26.327Z,83.90
2022-09-28T06:25:41.313Z,83.90
2022-09-28T06:28:47.063Z,84.00
2022-09-28T06:31:50.847Z,84.00
2022-09-28T06:34:56.465Z,84.00
2022-09-28T06:38:02.103Z,84.00
2022-09-28T06:41:05.995Z,84.00
2022-09-28T06:44:11.454Z,84.00
2022-09-28T06:47:34.622Z,84.00
2022-09-28T06:50:51.687Z,83.90
2022-09-28T06:54:17.114Z,83.90
2022-09-28T06:57:34.671Z,83.90
2022-09-28T07:00:41.386Z,83.90
2022-09-28T07:03:45.088Z,84.00
2022-09-28T07:07:17.911Z,83.90
2022-09-28T07:10:41.977Z,83.90
2022-09-28T07:14:05.885Z,84.00
2022-09-28T07:17:14.081Z,84.00
2022-09-28T07:20:19.994Z,84.00
2022-09-28T07:23:29.205Z,84.00
2022-09-28T07:27:08.947Z,84.00
2022-09-28T07:30:33.165Z,84.00
2022-09-28T07:33:51.310Z,84.00
2022-09-28T07:37:08.299Z,84.00
2022-09-28T07:40:25.732Z,84.00
2022-09-28T07:43:29.821Z,84.00
2022-09-28T07:46:34.325Z,84.00
2022-09-28T07:49:44.738Z,84.00
2022-09-28T07:52:54.085Z,84.00
2022-09-28T07:56:13.397Z,84.00
2022-09-28T07:59:24.467Z,84.00
2022-09-28T08:02:47.645Z,84.10
2022-09-28T08:06:02.934Z,84.00
2022-09-28T08:09:06.606Z,84.00
2022-09-28T08:12:33.694Z,83.90
2022-09-28T08:16:03.199Z,83.90
2022-09-28T08:19:51.553Z,83.90
2022-09-28T08:22:57.221Z,83.90
2022-09-28T08:26:00.916Z,83.90
2022-09-28T08:29:04.615Z,83.90
2022-09-28T08:32:26.339Z,83.90
2022-09-28T08:35:49.518Z,83.90
2022-09-28T08:39:09.135Z,83.90
2022-09-28T08:42:35.083Z,84.00
2022-09-28T08:45:59.300Z,83.90
2022-09-28T08:49:31.609Z,83.90
2022-09-28T08:53:07.332Z,84.00
2022-09-28T08:56:38.667Z,84.10
2022-09-28T08:59:50.792Z,84.00
2022-09-28T09:03:00.146Z,84.00
2022-09-28T09:06:06.679Z,84.10
2022-09-28T09:09:39.618Z,84.10
2022-09-28T09:16:28.733Z,83.90
2022-09-28T09:20:10.369Z,83.70
2022-09-28T09:23:39.775Z,83.50
2022-09-28T09:26:44.960Z,83.30
2022-09-28T09:30:04.091Z,83.20
2022-09-28T09:33:31.533Z,83.00
2022-09-28T09:37:21.741Z,82.80
2022-09-28T09:41:00.791Z,82.50
2022-09-28T09:44:51.373Z,82.30
2022-09-28T09:48:02.306Z,82.00
2022-09-28T09:51:19.170Z,81.90
2022-09-28T09:54:28.138Z,81.80
2022-09-28T09:57:39.849Z,81.60
2022-09-28T10:01:09.384Z,81.60
2022-09-28T10:04:40.811Z,81.60
2022-09-28T10:08:01.952Z,81.70
2022-09-28T10:11:09.854Z,81.70
2022-09-28T10:14:19.460Z,81.70
2022-09-28T10:17:29.377Z,81.60
2022-09-28T10:20:53.288Z,81.30
2022-09-28T10:24:31.113Z,81.10
2022-09-28T10:27:37.774Z,80.70
2022-09-28T10:30:43.710Z,80.40
2022-09-28T10:33:47.665Z,80.20
2022-09-28T10:36:57.715Z,80.60
2022-09-28T10:40:04.095Z,79.70
2022-09-28T10:43:21.879Z,79.50
2022-09-28T10:46:26.027Z,79.20
2022-09-28T10:49:44.412Z,79.30
2022-09-28T10:52:52.361Z,79.10
2022-09-28T10:56:22.139Z,79.00
2022-09-28T10:59:46.088Z,79.00
2022-09-28T11:02:59.022Z,78.90
2022-09-28T11:06:03.426Z,79.10
2022-09-28T11:09:30.538Z,79.10
2022-09-28T11:12:44.840Z,79.10
2022-09-28T11:15:49.632Z,79.10
2022-09-28T11:19:06.753Z,79.00
2022-09-28T11:22:22.765Z,78.80
2022-09-28T11:25:31.809Z,78.60
2022-09-28T11:28:38.878Z,78.60
2022-09-28T11:31:49.527Z,79.20
2022-09-28T11:35:00.310Z,78.60
2022-09-28T11:38:28.230Z,78.40
2022-09-28T11:42:17.387Z,78.00
2022-09-28T11:45:38.350Z,78.10
2022-09-28T11:48:47.142Z,78.00
2022-09-28T11:51:53.098Z,77.90
2022-09-28T11:55:00.905Z,77.90
2022-09-28T11:58:14.304Z,77.70
2022-09-28T12:01:27.146Z,77.40
2022-09-28T12:04:58.177Z,77.50
2022-09-28T12:08:10.292Z,77.50
2022-09-28T12:11:37.300Z,77.30
2022-09-28T12:15:04.372Z,77.20
2022-09-28T12:18:14.304Z,77.10
2022-09-28T12:21:33.979Z,77.00
2022-09-28T12:24:42.531Z,76.50
2022-09-28T12:27:52.003Z,76.60
2022-09-28T12:31:01.670Z,76.50
2022-09-28T12:34:06.001Z,76.40
2022-09-28T12:37:31.097Z,76.40
2022-09-28T12:40:43.046Z,76.20
2022-09-28T12:44:05.253Z,76.30
2022-09-28T12:47:31.963Z,76.20
2022-09-28T12:50:47.535Z,76.00
2022-09-28T12:54:07.240Z,76.20
2022-09-28T12:57:32.037Z,76.10
2022-09-28T13:00:45.157Z,76.00
2022-09-28T13:04:13.509Z,76.10
2022-09-28T13:07:26.166Z,75.80
2022-09-28T13:10:37.454Z,76.00
2022-09-28T13:13:49.342Z,75.90
2022-09-28T13:17:02.389Z,75.80
2022-09-28T13:20:22.671Z,75.80
2022-09-28T13:23:30.451Z,75.50
2022-09-28T13:26:38.899Z,75.60
2022-09-28T13:29:43.515Z,75.50
2022-09-28T13:32:51.284Z,75.40
2022-09-28T13:35:56.846Z,75.40
2022-09-28T13:39:01.734Z,75.30
2022-09-28T13:42:07.368Z,75.10
2022-09-28T13:45:43.891Z,75.10
2022-09-28T13:48:56.239Z,74.90
2022-09-28T13:52:07.736Z,75.10
2022-09-28T13:55:24.157Z,75.00
2022-09-28T13:58:32.745Z,75.00
2022-09-28T14:01:42.330Z,75.00
2022-09-28T14:04:57.784Z,75.00
2022-09-28T14:08:31.326Z,74.90
2022-09-28T14:11:45.500Z,74.80
2022-09-28T14:14:52.121Z,74.60
2022-09-28T14:18:11.375Z,74.80
2022-09-28T14:21:40.079Z,74.50
2022-09-28T14:25:07.833Z,74.30
2022-09-28T14:28:39.137Z,74.10
2022-09-28T14:31:44.698Z,73.90
2022-09-28T14:34:56.254Z,74.10
2022-09-28T14:38:18.589Z,74.10
2022-09-28T14:41:34.608Z,73.80
2022-09-28T14:45:10.773Z,73.60
2022-09-28T14:48:19.758Z,73.50
2022-09-28T14:51:45.869Z,73.60
2022-09-28T14:54:55.647Z,73.20
2022-09-28T14:58:01.205Z,73.30
2022-09-28T15:01:07.699Z,73.20
2022-09-28T15:04:13.896Z,73.00
2022-09-28T15:07:22.821Z,72.90
2022-09-28T15:10:32.518Z,72.80
2022-09-28T15:13:40.157Z,72.70
2022-09-28T15:16:43.846Z,72.70
2022-09-28T15:19:54.940Z,72.60
2022-09-28T15:23:00.561Z,72.40
2022-09-28T15:26:06.505Z,72.40
2022-09-28T15:29:19.458Z,72.40
2022-09-28T15:32:26.439Z,72.20
2022-09-28T15:35:28.391Z,72.20
2022-09-28T15:38:33.414Z,72.20
2022-09-28T15:41:37.265Z,72.20
2022-09-28T15:44:47.079Z,72.20
2022-09-28T15:47:51.742Z,72.10
2022-09-28T15:51:01.414Z,72.10
2022-09-28T15:54:13.659Z,72.00
2022-09-28T15:57:32.801Z,72.10
2022-09-28T16:00:39.580Z,71.90
2022-09-28T16:03:43.423Z,72.10
2022-09-28T16:07:06.837Z,72.20
2022-09-28T16:10:30.638Z,72.10
2022-09-28T16:13:34.680Z,72.20
2022-09-28T16:16:47.448Z,72.50
2022-09-28T16:19:51.090Z,72.40
2022-09-28T16:22:56.153Z,72.60
2022-09-28T16:26:02.691Z,72.60
2022-09-28T16:29:11.279Z,72.60
2022-09-28T16:32:41.067Z,72.60
2022-09-28T16:35:52.255Z,72.70
2022-09-28T16:38:55.877Z,72.80
2022-09-28T16:42:05.103Z,72.90
2022-09-28T16:45:14.749Z,72.90
2022-09-28T16:48:20.971Z,73.00
2022-09-28T16:51:25.075Z,73.10
2022-09-28T16:54:43.614Z,73.10
2022-09-28T16:57:49.617Z,73.20
2022-09-28T17:00:53.970Z,73.80
2022-09-28T17:03:59.534Z,73.30
2022-09-28T17:07:03.234Z,73.40
2022-09-28T17:10:17.038Z,73.40
2022-09-28T17:13:22.814Z,73.50
2022-09-28T17:19:56.259Z,73.60
2022-09-28T17:23:00.781Z,73.60
2022-09-28T17:26:05.302Z,73.50
2022-09-28T17:29:13.607Z,73.50
2022-09-28T17:32:20.109Z,73.50
2022-09-28T17:35:25.917Z,73.50
2022-09-28T17:38:29.765Z,73.50
2022-09-28T17:41:33.659Z,73.60
2022-09-28T17:44:37.285Z,73.70
2022-09-28T17:47:40.944Z,73.80
2022-09-28T17:50:47.677Z,73.90
2022-09-28T17:53:51.999Z,73.90
2022-09-28T17:56:55.595Z,73.90
2022-09-28T17:59:59.175Z,74.00
2022-09-28T18:03:02.844Z,74.00
2022-09-28T18:06:13.919Z,74.10
2022-09-28T18:09:24.129Z,74.20
2022-09-28T18:12:27.997Z,74.30
2022-09-28T18:15:31.873Z,74.30
2022-09-28T18:18:37.688Z,74.50
2022-09-28T18:21:43.238Z,74.50
2022-09-28T18:24:47.040Z,74.60
2022-09-28T18:27:52.496Z,74.70
2022-09-28T18:30:56.334Z,74.80
2022-09-28T18:34:02.206Z,74.90
2022-09-28T18:37:08.061Z,75.00
2022-09-28T18:40:14.677Z,75.10
2022-09-28T18:43:18.299Z,75.80
2022-09-28T18:46:25.199Z,75.70
2022-09-28T18:49:28.882Z,75.40
2022-09-28T18:52:37.408Z,75.40
2022-09-28T18:55:41.918Z,75.50
2022-09-28T18:58:47.319Z,75.60
2022-09-28T19:01:51.064Z,75.70
2022-09-28T19:04:54.830Z,75.70
2022-09-28T19:08:00.397Z,75.70
2022-09-28T19:11:08.929Z,75.70
2022-09-28T19:14:14.386Z,75.80
2022-09-28T19:17:18.111Z,75.80
2022-09-28T19:20:21.750Z,75.90
2022-09-28T19:23:27.858Z,75.90
2022-09-28T19:26:32.349Z,76.00
2022-09-28T19:29:35.955Z,76.10
2022-09-28T19:32:41.831Z,76.10
2022-09-28T19:35:45.453Z,76.30
2022-09-28T19:38:51.424Z,76.20
2022-09-28T19:41:56.982Z,76.30
2022-09-28T19:45:00.633Z,76.40
2022-09-28T19:48:04.234Z,76.50
2022-09-28T19:51:08.108Z,76.60
2022-09-28T19:54:13.762Z,76.50
2022-09-28T19:57:18.978Z,76.60
2022-09-28T20:00:22.866Z,76.60
2022-09-28T20:03:27.663Z,76.60
2022-09-28T20:06:33.112Z,76.70
2022-09-28T20:09:38.646Z,76.70
2022-09-28T20:12:42.507Z,76.80
2022-09-28T20:15:46.324Z,76.80
2022-09-28T20:18:50.771Z,76.90
2022-09-28T20:21:57.956Z,76.90
2022-09-28T20:25:03.695Z,77.00
2022-09-28T20:28:07.770Z,77.00
2022-09-28T20:31:13.289Z,77.00
2022-09-28T20:34:17.246Z,77.00
2022-09-28T20:37:20.847Z,76.90
2022-09-28T20:40:26.620Z,77.10
2022-09-28T20:43:31.093Z,77.00
2022-09-28T20:46:35.135Z,77.10
2022-09-28T20:49:38.913Z,77.20
2022-09-28T20:52:42.510Z,77.30
2022-09-28T20:55:48.049Z,77.30
2022-09-28T20:58:52.655Z,77.30
2022-09-28T21:01:56.341Z,77.30
2022-09-28T21:05:00.203Z,77.40
2022-09-28T21:08:03.973Z,77.50
2022-09-28T21:11:09.877Z,77.40
2022-09-28T21:14:13.474Z,77.50
2022-09-28T21:17:17.110Z,77.60
2022-09-28T21:20:20.822Z,77.60
2022-09-28T21:23:25.168Z,77.70
2022-09-28T21:26:32.262Z,77.70
2022-09-28T21:29:35.909Z,77.80
2022-09-28T21:32:39.501Z,77.80
2022-09-28T21:35:43.122Z,77.90
2022-09-28T21:38:46.783Z,77.90
2022-09-28T21:41:52.338Z,77.90
2022-09-28T21:44:59.363Z,78.00
2022-09-28T21:48:03.412Z,78.10
2022-09-28T21:51:08.929Z,78.00
2022-09-28T21:54:13.267Z,78.10
2022-09-28T21:57:19.347Z,78.10
2022-09-28T22:00:24.551Z,78.10
2022-09-28T22:03:28.521Z,78.20
2022-09-28T22:06:31.897Z,78.30
2022-09-28T22:09:35.513Z,78.20
2022-09-28T22:12:41.200Z,78.10
2022-09-28T22:15:44.858Z,78.20
2022-09-28T22:18:48.779Z,78.30
2022-09-28T22:21:52.495Z,78.30
2022-09-28T22:24:56.158Z,78.40
2022-09-28T22:28:02.122Z,78.40
2022-09-28T22:31:06.222Z,78.50
2022-09-28T22:34:11.029Z,78.50
2022-09-28T22:37:14.661Z,78.60
2022-09-28T22:40:19.515Z,78.60
2022-09-28T22:43:26.570Z,78.60
2022-09-28T22:46:32.309Z,78.60
2022-09-28T22:49:36.120Z,78.70
2022-09-28T22:52:39.730Z,78.70
2022-09-28T22:55:43.451Z,78.80
2022-09-28T22:58:49.325Z,78.80
2022-09-28T23:01:52.969Z,78.80
2022-09-28T23:04:56.637Z,78.80
2022-09-28T23:08:00.366Z,78.90
2022-09-28T23:11:04.733Z,78.90
2022-09-28T23:14:13.553Z,78.90
2022-09-28T23:17:17.169Z,79.00
2022-09-28T23:20:20.983Z,79.00
2022-09-28T23:23:25.158Z,79.00
2022-09-28T23:26:30.249Z,79.00
2022-09-28T23:29:35.787Z,79.10
2022-09-28T23:32:39.385Z,79.00
2022-09-28T23:35:43.400Z,79.00
2022-09-28T23:38:46.788Z,79.10
2022-09-28T23:41:50.405Z,79.00
2022-09-28T23:44:55.976Z,79.00
2022-09-28T23:47:59.591Z,79.00
2022-09-28T23:51:03.989Z,79.10
2022-09-28T23:54:07.895Z,79.20
2022-09-28T23:57:11.473Z,79.20
